sensor_id;sensor_type;location;lat;lon;timestamp;pressure;altitude;pressure_sealevel;temperature;humidity
50380;BME280;37474;59.468;18.040;2023-04-09T00:01:11;103008.44;;;-4.02;100.00
50380;BME280;37474;59.468;18.040;2023-04-09T00:03:38;103006.81;;;-4.00;100.00
50380;BME280;37474;59.468;18.040;2023-04-09T00:06:10;103007.25;;;-3.91;100.00
50380;BME280;37474;59.468;18.040;2023-04-09T00:08:40;103005.72;;;-3.87;100.00
50380;BME280;37474;59.468;18.040;2023-04-09T00:11:07;102998.91;;;-3.88;100.00
50380;BME280;37474;59.468;18.040;2023-04-09T00:13:38;103004.78;;;-3.70;100.00
50380;BME280;37474;59.468;18.040;2023-04-09T00:16:08;102999.31;;;-3.60;100.00
50380;BME280;37474;59.468;18.040;2023-04-09T00:18:36;102993.75;;;-3.51;100.00
50380;BME280;37474;59.468;18.040;2023-04-09T00:21:07;102998.78;;;-3.91;100.00
50380;BME280;37474;59.468;18.040;2023-04-09T00:23:37;102975.50;;;-4.02;100.00
50380;BME280;37474;59.468;18.040;2023-04-09T00:26:05;102987.50;;;-3.98;100.00
50380;BME280;37474;59.468;18.040;2023-04-09T00:28:33;102992.25;;;-3.86;100.00
50380;BME280;37474;59.468;18.040;2023-04-09T00:31:04;102983.38;;;-3.77;100.00
50380;BME280;37474;59.468;18.040;2023-04-09T00:33:32;102989.66;;;-3.88;100.00
50380;BME280;37474;59.468;18.040;2023-04-09T00:36:00;102979.25;;;-3.94;100.00
50380;BME280;37474;59.468;18.040;2023-04-09T00:38:32;102991.22;;;-3.90;100.00
50380;BME280;37474;59.468;18.040;2023-04-09T00:41:00;102983.63;;;-3.90;100.00
50380;BME280;37474;59.468;18.040;2023-04-09T00:43:28;102957.28;;;-4.13;100.00
50380;BME280;37474;59.468;18.040;2023-04-09T00:46:00;102983.56;;;-3.91;100.00
50380;BME280;37474;59.468;18.040;2023-04-09T00:48:29;102981.34;;;-3.84;100.00
50380;BME280;37474;59.468;18.040;2023-04-09T00:50:57;102975.31;;;-3.87;100.00
50380;BME280;37474;59.468;18.040;2023-04-09T00:53:29;102984.50;;;-4.09;100.00
50380;BME280;37474;59.468;18.040;2023-04-09T00:55:57;102980.22;;;-4.10;100.00
50380;BME280;37474;59.468;18.040;2023-04-09T00:58:25;102968.63;;;-4.05;100.00
50380;BME280;37474;59.468;18.040;2023-04-09T01:00:55;102969.16;;;-3.92;100.00
50380;BME280;37474;59.468;18.040;2023-04-09T01:03:23;102949.50;;;-3.98;100.00
50380;BME280;37474;59.468;18.040;2023-04-09T01:06:10;102937.66;;;-4.17;100.00
50380;BME280;37474;59.468;18.040;2023-04-09T01:08:48;102977.38;;;-3.98;100.00
50380;BME280;37474;59.468;18.040;2023-04-09T01:11:25;102949.22;;;-4.04;100.00
50380;BME280;37474;59.468;18.040;2023-04-09T01:14:05;102938.53;;;-4.36;100.00
50380;BME280;37474;59.468;18.040;2023-04-09T01:16:41;102982.97;;;-4.05;100.00
50380;BME280;37474;59.468;18.040;2023-04-09T01:19:23;102976.50;;;-3.99;100.00
50380;BME280;37474;59.468;18.040;2023-04-09T01:21:56;102972.56;;;-3.92;100.00
50380;BME280;37474;59.468;18.040;2023-04-09T01:24:36;102969.03;;;-3.95;100.00
50380;BME280;37474;59.468;18.040;2023-04-09T01:27:10;102983.63;;;-4.09;100.00
50380;BME280;37474;59.468;18.040;2023-04-09T01:29:45;102975.13;;;-4.29;100.00
50380;BME280;37474;59.468;18.040;2023-04-09T01:32:15;102968.81;;;-4.19;100.00
50380;BME280;37474;59.468;18.040;2023-04-09T01:34:46;102970.31;;;-4.23;100.00
50380;BME280;37474;59.468;18.040;2023-04-09T01:37:14;102923.03;;;-4.79;100.00
50380;BME280;37474;59.468;18.040;2023-04-09T01:39:45;102940.03;;;-4.59;100.00
50380;BME280;37474;59.468;18.040;2023-04-09T01:42:16;102963.13;;;-4.51;100.00
50380;BME280;37474;59.468;18.040;2023-04-09T01:44:46;102959.97;;;-4.47;100.00
50380;BME280;37474;59.468;18.040;2023-04-09T01:47:15;102963.34;;;-4.46;100.00
50380;BME280;37474;59.468;18.040;2023-04-09T01:49:45;102968.41;;;-4.46;100.00
50380;BME280;37474;59.468;18.040;2023-04-09T01:52:15;102966.22;;;-4.21;100.00
50380;BME280;37474;59.468;18.040;2023-04-09T01:54:43;102975.16;;;-4.47;100.00
50380;BME280;37474;59.468;18.040;2023-04-09T01:57:12;102977.06;;;-4.61;100.00
50380;BME280;37474;59.468;18.040;2023-04-09T01:59:40;102973.56;;;-4.63;100.00
50380;BME280;37474;59.468;18.040;2023-04-09T02:02:13;102972.16;;;-3.62;100.00
50380;BME280;37474;59.468;18.040;2023-04-09T02:04:53;102974.47;;;-4.06;100.00
50380;BME280;37474;59.468;18.040;2023-04-09T02:07:28;102979.09;;;-4.34;100.00
50380;BME280;37474;59.468;18.040;2023-04-09T02:10:04;102980.94;;;-4.32;100.00
50380;BME280;37474;59.468;18.040;2023-04-09T02:12:35;102979.03;;;-4.36;100.00
50380;BME280;37474;59.468;18.040;2023-04-09T02:15:06;102977.53;;;-4.32;100.00
50380;BME280;37474;59.468;18.040;2023-04-09T02:17:38;102980.97;;;-4.49;100.00
50380;BME280;37474;59.468;18.040;2023-04-09T02:20:07;102980.88;;;-4.69;100.00
50380;BME280;37474;59.468;18.040;2023-04-09T02:22:35;102953.75;;;-4.89;100.00
50380;BME280;37474;59.468;18.040;2023-04-09T02:25:05;102973.34;;;-4.85;100.00
50380;BME280;37474;59.468;18.040;2023-04-09T02:27:35;102982.63;;;-4.86;100.00
50380;BME280;37474;59.468;18.040;2023-04-09T02:30:07;102980.72;;;-4.72;100.00
50380;BME280;37474;59.468;18.040;2023-04-09T02:32:36;102983.41;;;-4.51;100.00
50380;BME280;37474;59.468;18.040;2023-04-09T02:35:06;102981.66;;;-4.52;100.00
50380;BME280;37474;59.468;18.040;2023-04-09T02:37:36;102988.75;;;-4.63;100.00
50380;BME280;37474;59.468;18.040;2023-04-09T02:40:04;102985.88;;;-4.53;100.00
50380;BME280;37474;59.468;18.040;2023-04-09T02:42:36;102980.28;;;-4.63;100.00
50380;BME280;37474;59.468;18.040;2023-04-09T02:45:07;102980.88;;;-4.69;100.00
50380;BME280;37474;59.468;18.040;2023-04-09T02:47:36;102979.16;;;-4.70;100.00
50380;BME280;37474;59.468;18.040;2023-04-09T02:50:07;102982.97;;;-4.78;100.00
50380;BME280;37474;59.468;18.040;2023-04-09T02:52:37;102944.03;;;-4.99;100.00
50380;BME280;37474;59.468;18.040;2023-04-09T02:55:05;102969.31;;;-4.99;100.00
50380;BME280;37474;59.468;18.040;2023-04-09T02:57:37;102986.00;;;-4.85;100.00
50380;BME280;37474;59.468;18.040;2023-04-09T03:00:08;102985.94;;;-4.87;100.00
50380;BME280;37474;59.468;18.040;2023-04-09T03:02:38;102983.41;;;-4.87;100.00
50380;BME280;37474;59.468;18.040;2023-04-09T03:05:08;102985.78;;;-4.72;100.00
50380;BME280;37474;59.468;18.040;2023-04-09T03:07:38;102977.47;;;-4.69;100.00
50380;BME280;37474;59.468;18.040;2023-04-09T03:10:06;102988.69;;;-4.46;100.00
50380;BME280;37474;59.468;18.040;2023-04-09T03:12:38;102980.19;;;-4.29;100.00
50380;BME280;37474;59.468;18.040;2023-04-09T03:15:09;102981.41;;;-4.21;100.00
50380;BME280;37474;59.468;18.040;2023-04-09T03:17:38;102949.72;;;-4.31;100.00
50380;BME280;37474;59.468;18.040;2023-04-09T03:20:09;102989.66;;;-4.25;100.00
50380;BME280;37474;59.468;18.040;2023-04-09T03:22:38;102981.03;;;-4.11;100.00
50380;BME280;37474;59.468;18.040;2023-04-09T03:25:07;102981.16;;;-4.08;100.00
50380;BME280;37474;59.468;18.040;2023-04-09T03:27:39;102953.50;;;-4.03;100.00
50380;BME280;37474;59.468;18.040;2023-04-09T03:30:10;102958.53;;;-3.84;100.00
50380;BME280;37474;59.468;18.040;2023-04-09T03:32:39;102971.16;;;-3.85;100.00
50380;BME280;37474;59.468;18.040;2023-04-09T03:35:10;102960.09;;;-3.87;100.00
50380;BME280;37474;59.468;18.040;2023-04-09T03:37:39;102975.34;;;-3.66;100.00
50380;BME280;37474;59.468;18.040;2023-04-09T03:40:08;102972.84;;;-3.46;100.00
50380;BME280;37474;59.468;18.040;2023-04-09T03:42:40;102979.25;;;-3.55;100.00
50380;BME280;37474;59.468;18.040;2023-04-09T03:45:11;102975.94;;;-3.53;100.00
50380;BME280;37474;59.468;18.040;2023-04-09T03:47:40;102977.69;;;-3.52;100.00
50380;BME280;37474;59.468;18.040;2023-04-09T03:50:10;102977.94;;;-3.46;100.00
50380;BME280;37474;59.468;18.040;2023-04-09T03:52:39;102972.34;;;-3.38;100.00
50380;BME280;37474;59.468;18.040;2023-04-09T03:55:08;102979.50;;;-3.28;100.00
50380;BME280;37474;59.468;18.040;2023-04-09T03:57:38;102982.91;;;-3.28;100.00
50380;BME280;37474;59.468;18.040;2023-04-09T04:00:08;102981.50;;;-3.21;100.00
50380;BME280;37474;59.468;18.040;2023-04-09T04:02:36;102980.03;;;-3.16;100.00
50380;BME280;37474;59.468;18.040;2023-04-09T04:05:08;102987.81;;;-3.11;100.00
50380;BME280;37474;59.468;18.040;2023-04-09T04:07:37;102976.50;;;-3.20;100.00
50380;BME280;37474;59.468;18.040;2023-04-09T04:10:06;102956.50;;;-3.12;100.00
50380;BME280;37474;59.468;18.040;2023-04-09T04:12:36;102982.28;;;-3.01;100.00
50380;BME280;37474;59.468;18.040;2023-04-09T04:15:06;102979.47;;;-2.88;100.00
50380;BME280;37474;59.468;18.040;2023-04-09T04:17:34;102982.66;;;-2.71;100.00
50380;BME280;37474;59.468;18.040;2023-04-09T04:20:07;102981.81;;;-2.72;100.00
50380;BME280;37474;59.468;18.040;2023-04-09T04:22:37;102980.84;;;-2.74;100.00
50380;BME280;37474;59.468;18.040;2023-04-09T04:25:05;102963.03;;;-2.75;100.00
50380;BME280;37474;59.468;18.040;2023-04-09T04:27:35;102987.44;;;-2.56;100.00
50380;BME280;37474;59.468;18.040;2023-04-09T04:30:06;102983.41;;;-2.51;100.00
50380;BME280;37474;59.468;18.040;2023-04-09T04:32:34;102985.31;;;-2.46;100.00
50380;BME280;37474;59.468;18.040;2023-04-09T04:35:05;102981.97;;;-2.45;100.00
50380;BME280;37474;59.468;18.040;2023-04-09T04:37:35;102989.31;;;-2.30;100.00
50380;BME280;37474;59.468;18.040;2023-04-09T04:40:03;102987.19;;;-2.19;100.00
50380;BME280;37474;59.468;18.040;2023-04-09T04:42:33;102984.50;;;-2.22;100.00
50380;BME280;37474;59.468;18.040;2023-04-09T04:45:06;102989.69;;;-1.97;100.00
50380;BME280;37474;59.468;18.040;2023-04-09T04:47:34;102979.16;;;-1.83;100.00
50380;BME280;37474;59.468;18.040;2023-04-09T04:50:02;102984.84;;;-1.91;100.00
50380;BME280;37474;59.468;18.040;2023-04-09T04:52:35;102984.31;;;-1.82;100.00
50380;BME280;37474;59.468;18.040;2023-04-09T04:55:05;102989.66;;;-1.74;100.00
50380;BME280;37474;59.468;18.040;2023-04-09T04:57:36;102988.53;;;-1.58;100.00
50380;BME280;37474;59.468;18.040;2023-04-09T05:00:05;102988.94;;;-1.46;100.00
50380;BME280;37474;59.468;18.040;2023-04-09T05:02:34;102984.16;;;-1.37;100.00
50380;BME280;37474;59.468;18.040;2023-04-09T05:05:04;102986.13;;;-1.28;100.00
50380;BME280;37474;59.468;18.040;2023-04-09T05:07:35;102980.16;;;-1.30;100.00
50380;BME280;37474;59.468;18.040;2023-04-09T05:10:03;102982.44;;;-1.13;100.00
50380;BME280;37474;59.468;18.040;2023-04-09T05:12:33;102987.91;;;-1.00;100.00
50380;BME280;37474;59.468;18.040;2023-04-09T05:15:03;102995.81;;;-0.93;100.00
50380;BME280;37474;59.468;18.040;2023-04-09T05:17:32;102972.94;;;-0.91;100.00
50380;BME280;37474;59.468;18.040;2023-04-09T05:20:00;102995.03;;;-0.63;100.00
50380;BME280;37474;59.468;18.040;2023-04-09T05:22:30;102990.84;;;-0.61;97.56
50380;BME280;37474;59.468;18.040;2023-04-09T05:25:02;102998.09;;;-0.46;96.93
50380;BME280;37474;59.468;18.040;2023-04-09T05:27:30;102995.06;;;-0.35;95.08
50380;BME280;37474;59.468;18.040;2023-04-09T05:29:58;102993.69;;;-0.23;96.07
50380;BME280;37474;59.468;18.040;2023-04-09T05:32:27;102998.44;;;-0.06;92.72
50380;BME280;37474;59.468;18.040;2023-04-09T05:34:55;102992.00;;;0.06;88.07
50380;BME280;37474;59.468;18.040;2023-04-09T05:37:25;102976.09;;;0.16;86.98
50380;BME280;37474;59.468;18.040;2023-04-09T05:39:55;102991.22;;;0.40;84.43
50380;BME280;37474;59.468;18.040;2023-04-09T05:42:24;102983.94;;;0.55;82.00
50380;BME280;37474;59.468;18.040;2023-04-09T05:44:54;102990.38;;;0.72;79.90
50380;BME280;37474;59.468;18.040;2023-04-09T05:47:24;102990.63;;;0.83;78.19
50380;BME280;37474;59.468;18.040;2023-04-09T05:49:51;102993.72;;;1.04;76.32
50380;BME280;37474;59.468;18.040;2023-04-09T05:52:21;102989.56;;;1.10;75.38
50380;BME280;37474;59.468;18.040;2023-04-09T05:54:51;102986.56;;;1.26;75.62
50380;BME280;37474;59.468;18.040;2023-04-09T05:57:19;102995.53;;;1.45;71.74
50380;BME280;37474;59.468;18.040;2023-04-09T05:59:50;102988.75;;;1.48;69.21
50380;BME280;37474;59.468;18.040;2023-04-09T06:02:19;102990.81;;;1.63;70.04
50380;BME280;37474;59.468;18.040;2023-04-09T06:04:47;102989.81;;;1.56;71.81
50380;BME280;37474;59.468;18.040;2023-04-09T06:07:18;102989.91;;;1.61;69.50
50380;BME280;37474;59.468;18.040;2023-04-09T06:09:48;102988.81;;;1.89;70.04
50380;BME280;37474;59.468;18.040;2023-04-09T06:12:16;102983.31;;;2.13;68.49
50380;BME280;37474;59.468;18.040;2023-04-09T06:14:47;102985.88;;;2.13;67.05
50380;BME280;37474;59.468;18.040;2023-04-09T06:17:19;102984.63;;;2.38;65.06
50380;BME280;37474;59.468;18.040;2023-04-09T06:19:47;102951.84;;;2.17;65.65
50380;BME280;37474;59.468;18.040;2023-04-09T06:22:14;102991.06;;;2.63;62.64
50380;BME280;37474;59.468;18.040;2023-04-09T06:24:46;102984.31;;;2.68;62.93
50380;BME280;37474;59.468;18.040;2023-04-09T06:27:14;102972.03;;;2.49;62.53
50380;BME280;37474;59.468;18.040;2023-04-09T06:29:44;102995.44;;;2.70;63.05
50380;BME280;37474;59.468;18.040;2023-04-09T06:32:17;103001.41;;;2.68;64.50
50380;BME280;37474;59.468;18.040;2023-04-09T06:34:44;102994.47;;;2.62;64.06
50380;BME280;37474;59.468;18.040;2023-04-09T06:37:18;103005.34;;;2.50;64.37
50380;BME280;37474;59.468;18.040;2023-04-09T06:39:46;103002.84;;;2.55;63.62
50380;BME280;37474;59.468;18.040;2023-04-09T06:42:28;103000.25;;;2.52;65.92
50380;BME280;37474;59.468;18.040;2023-04-09T06:44:58;102936.13;;;2.46;63.79
50380;BME280;37474;59.468;18.040;2023-04-09T06:47:29;102994.78;;;2.80;63.39
50380;BME280;37474;59.468;18.040;2023-04-09T06:49:57;102992.88;;;2.69;62.92
50380;BME280;37474;59.468;18.040;2023-04-09T06:52:27;102995.97;;;2.51;65.40
50380;BME280;37474;59.468;18.040;2023-04-09T06:54:54;102993.84;;;2.75;62.96
50380;BME280;37474;59.468;18.040;2023-04-09T06:57:25;102998.97;;;2.75;62.74
50380;BME280;37474;59.468;18.040;2023-04-09T06:59:53;102998.19;;;2.79;62.05
50380;BME280;37474;59.468;18.040;2023-04-09T07:02:23;102994.38;;;3.09;60.92
50380;BME280;37474;59.468;18.040;2023-04-09T07:04:52;102992.41;;;2.92;61.49
50380;BME280;37474;59.468;18.040;2023-04-09T07:07:22;102993.47;;;3.05;60.64
50380;BME280;37474;59.468;18.040;2023-04-09T07:09:52;102937.09;;;2.51;59.53
50380;BME280;37474;59.468;18.040;2023-04-09T07:12:25;103007.50;;;2.77;60.65
50380;BME280;37474;59.468;18.040;2023-04-09T07:14:57;103004.06;;;2.75;61.49
50380;BME280;37474;59.468;18.040;2023-04-09T07:17:25;102999.03;;;2.80;61.78
50380;BME280;37474;59.468;18.040;2023-04-09T07:19:54;102996.94;;;3.07;62.55
50380;BME280;37474;59.468;18.040;2023-04-09T07:22:27;102999.84;;;3.32;60.59
50380;BME280;37474;59.468;18.040;2023-04-09T07:24:55;102991.69;;;3.56;61.65
50380;BME280;37474;59.468;18.040;2023-04-09T07:27:24;102993.31;;;3.52;59.43
50380;BME280;37474;59.468;18.040;2023-04-09T07:29:57;102995.31;;;3.73;60.06
50380;BME280;37474;59.468;18.040;2023-04-09T07:32:26;102989.72;;;4.05;58.36
50380;BME280;37474;59.468;18.040;2023-04-09T07:34:55;102994.69;;;3.89;60.79
50380;BME280;37474;59.468;18.040;2023-04-09T07:37:26;102993.13;;;4.02;58.50
50380;BME280;37474;59.468;18.040;2023-04-09T07:39:54;102993.84;;;3.90;58.35
50380;BME280;37474;59.468;18.040;2023-04-09T07:42:22;102966.41;;;3.86;58.78
50380;BME280;37474;59.468;18.040;2023-04-09T07:44:54;102996.00;;;4.28;58.23
50380;BME280;37474;59.468;18.040;2023-04-09T07:47:23;102990.56;;;4.04;55.88
50380;BME280;37474;59.468;18.040;2023-04-09T07:49:51;102990.63;;;4.07;57.78
50380;BME280;37474;59.468;18.040;2023-04-09T07:52:23;102994.03;;;4.06;58.13
50380;BME280;37474;59.468;18.040;2023-04-09T07:54:51;102996.34;;;4.62;55.78
50380;BME280;37474;59.468;18.040;2023-04-09T07:57:19;102998.34;;;4.99;54.75
50380;BME280;37474;59.468;18.040;2023-04-09T07:59:50;102990.84;;;5.25;52.97
50380;BME280;37474;59.468;18.040;2023-04-09T08:02:17;102989.13;;;5.24;54.15
50380;BME280;37474;59.468;18.040;2023-04-09T08:04:45;102995.91;;;5.12;54.31
50380;BME280;37474;59.468;18.040;2023-04-09T08:07:17;102995.00;;;5.07;54.04
50380;BME280;37474;59.468;18.040;2023-04-09T08:09:46;103001.06;;;5.15;55.27
50380;BME280;37474;59.468;18.040;2023-04-09T08:12:14;102974.66;;;5.43;54.66
50380;BME280;37474;59.468;18.040;2023-04-09T08:14:42;102989.19;;;5.37;54.21
50380;BME280;37474;59.468;18.040;2023-04-09T08:17:10;102987.69;;;5.71;53.60
50380;BME280;37474;59.468;18.040;2023-04-09T08:19:40;102988.63;;;5.90;51.94
50380;BME280;37474;59.468;18.040;2023-04-09T08:22:10;102988.75;;;6.22;52.50
50380;BME280;37474;59.468;18.040;2023-04-09T08:24:38;102986.19;;;6.11;51.14
50380;BME280;37474;59.468;18.040;2023-04-09T08:27:09;102983.59;;;6.16;50.68
50380;BME280;37474;59.468;18.040;2023-04-09T08:29:39;102971.59;;;6.12;51.04
50380;BME280;37474;59.468;18.040;2023-04-09T08:32:08;102966.44;;;6.12;50.17
50380;BME280;37474;59.468;18.040;2023-04-09T08:34:38;102978.50;;;6.34;52.73
50380;BME280;37474;59.468;18.040;2023-04-09T08:37:06;102977.66;;;6.44;50.46
50380;BME280;37474;59.468;18.040;2023-04-09T08:39:33;102975.13;;;6.61;51.69
50380;BME280;37474;59.468;18.040;2023-04-09T08:42:04;102977.69;;;6.92;50.89
50380;BME280;37474;59.468;18.040;2023-04-09T08:44:34;102966.47;;;6.42;53.25
50380;BME280;37474;59.468;18.040;2023-04-09T08:47:08;102973.38;;;6.48;52.16
50380;BME280;37474;59.468;18.040;2023-04-09T08:49:38;102971.63;;;7.22;50.96
50380;BME280;37474;59.468;18.040;2023-04-09T08:52:06;102969.91;;;7.27;51.41
50380;BME280;37474;59.468;18.040;2023-04-09T08:54:36;102965.50;;;7.68;50.67
50380;BME280;37474;59.468;18.040;2023-04-09T08:57:06;102963.69;;;7.86;50.26
50380;BME280;37474;59.468;18.040;2023-04-09T08:59:35;102968.97;;;7.49;50.62
50380;BME280;37474;59.468;18.040;2023-04-09T09:02:06;102923.44;;;7.45;51.42
50380;BME280;37474;59.468;18.040;2023-04-09T09:04:45;102961.19;;;7.74;52.54
50380;BME280;37474;59.468;18.040;2023-04-09T09:07:13;102954.03;;;8.23;52.74
50380;BME280;37474;59.468;18.040;2023-04-09T09:09:51;102942.25;;;7.78;52.31
50380;BME280;37474;59.468;18.040;2023-04-09T09:12:35;102959.19;;;8.28;52.25
50380;BME280;37474;59.468;18.040;2023-04-09T09:15:26;102949.69;;;8.27;50.84
50380;BME280;37474;59.468;18.040;2023-04-09T09:17:57;102951.09;;;8.78;51.06
50380;BME280;37474;59.468;18.040;2023-04-09T09:20:27;102946.66;;;8.88;49.88
50380;BME280;37474;59.468;18.040;2023-04-09T09:22:55;102944.59;;;9.25;50.92
50380;BME280;37474;59.468;18.040;2023-04-09T09:25:50;102942.16;;;9.11;47.87
50380;BME280;37474;59.468;18.040;2023-04-09T09:28:20;102934.56;;;8.93;48.97
50380;BME280;37474;59.468;18.040;2023-04-09T09:30:49;102951.03;;;8.84;47.29
50380;BME280;37474;59.468;18.040;2023-04-09T09:33:19;102905.41;;;8.76;46.81
50380;BME280;37474;59.468;18.040;2023-04-09T09:35:50;102936.06;;;9.15;46.76
50380;BME280;37474;59.468;18.040;2023-04-09T09:38:19;102927.78;;;9.61;48.47
50380;BME280;37474;59.468;18.040;2023-04-09T09:40:49;102923.41;;;9.65;44.46
50380;BME280;37474;59.468;18.040;2023-04-09T09:43:18;102932.56;;;9.92;45.33
50380;BME280;37474;59.468;18.040;2023-04-09T09:45:46;102928.69;;;9.57;44.58
50380;BME280;37474;59.468;18.040;2023-04-09T09:48:17;102928.06;;;10.04;43.87
50380;BME280;37474;59.468;18.040;2023-04-09T09:50:50;102919.47;;;10.02;42.24
50380;BME280;37474;59.468;18.040;2023-04-09T09:53:21;102911.03;;;9.87;41.63
50380;BME280;37474;59.468;18.040;2023-04-09T09:55:59;102922.59;;;9.63;39.75
50380;BME280;37474;59.468;18.040;2023-04-09T09:58:31;102925.84;;;9.78;40.44
50380;BME280;37474;59.468;18.040;2023-04-09T10:01:06;102927.19;;;10.07;36.67
50380;BME280;37474;59.468;18.040;2023-04-09T10:03:37;102921.91;;;10.13;38.62
50380;BME280;37474;59.468;18.040;2023-04-09T10:06:08;102891.09;;;9.95;36.06
50380;BME280;37474;59.468;18.040;2023-04-09T10:08:36;102922.63;;;10.21;38.58
50380;BME280;37474;59.468;18.040;2023-04-09T10:11:06;102924.81;;;10.50;38.34
50380;BME280;37474;59.468;18.040;2023-04-09T10:13:42;102920.03;;;10.21;36.50
50380;BME280;37474;59.468;18.040;2023-04-09T10:16:13;102919.81;;;10.38;37.82
50380;BME280;37474;59.468;18.040;2023-04-09T10:18:45;102918.63;;;10.61;36.50
50380;BME280;37474;59.468;18.040;2023-04-09T10:21:18;102916.56;;;10.79;35.17
50380;BME280;37474;59.468;18.040;2023-04-09T10:23:50;102902.69;;;10.80;37.59
50380;BME280;37474;59.468;18.040;2023-04-09T10:26:23;102902.34;;;10.99;33.88
50380;BME280;37474;59.468;18.040;2023-04-09T10:29:03;102901.78;;;11.29;35.61
50380;BME280;37474;59.468;18.040;2023-04-09T10:32:03;102900.13;;;11.25;35.53
50380;BME280;37474;59.468;18.040;2023-04-09T10:34:38;102893.06;;;11.33;38.03
50380;BME280;37474;59.468;18.040;2023-04-09T10:37:07;102898.97;;;11.40;38.09
50380;BME280;37474;59.468;18.040;2023-04-09T10:39:39;102889.44;;;11.41;36.12
50380;BME280;37474;59.468;18.040;2023-04-09T10:42:13;102895.53;;;10.93;36.13
50380;BME280;37474;59.468;18.040;2023-04-09T10:44:43;102902.59;;;10.36;37.15
50380;BME280;37474;59.468;18.040;2023-04-09T10:47:30;102903.84;;;10.64;39.16
50380;BME280;37474;59.468;18.040;2023-04-09T10:50:13;102895.16;;;10.67;37.99
50380;BME280;37474;59.468;18.040;2023-04-09T10:52:41;102858.78;;;10.70;37.92
50380;BME280;37474;59.468;18.040;2023-04-09T10:55:28;102897.56;;;11.24;37.99
50380;BME280;37474;59.468;18.040;2023-04-09T10:57:59;102900.41;;;11.10;35.05
50380;BME280;37474;59.468;18.040;2023-04-09T11:00:28;102898.13;;;11.40;36.39
50380;BME280;37474;59.468;18.040;2023-04-09T11:03:17;102903.53;;;10.81;35.78
50380;BME280;37474;59.468;18.040;2023-04-09T11:05:50;102893.56;;;11.51;33.74
50380;BME280;37474;59.468;18.040;2023-04-09T11:08:18;102892.28;;;12.10;34.40
50380;BME280;37474;59.468;18.040;2023-04-09T11:10:48;102900.28;;;12.38;36.38
50380;BME280;37474;59.468;18.040;2023-04-09T11:13:18;102888.41;;;11.89;36.49
50380;BME280;37474;59.468;18.040;2023-04-09T11:15:47;102892.63;;;11.95;34.95
50380;BME280;37474;59.468;18.040;2023-04-09T11:18:19;102874.31;;;11.18;37.32
50380;BME280;37474;59.468;18.040;2023-04-09T11:20:52;102898.94;;;11.83;36.65
50380;BME280;37474;59.468;18.040;2023-04-09T11:23:22;102899.38;;;12.02;34.86
50380;BME280;37474;59.468;18.040;2023-04-09T11:25:54;102892.72;;;11.91;34.69
50380;BME280;37474;59.468;18.040;2023-04-09T11:28:22;102905.38;;;11.22;36.23
50380;BME280;37474;59.468;18.040;2023-04-09T11:30:50;102906.47;;;11.10;35.57
50380;BME280;37474;59.468;18.040;2023-04-09T11:33:21;102897.06;;;11.05;36.69
50380;BME280;37474;59.468;18.040;2023-04-09T11:35:50;102896.78;;;11.62;34.05
50380;BME280;37474;59.468;18.040;2023-04-09T11:38:20;102896.47;;;11.35;33.98
50380;BME280;37474;59.468;18.040;2023-04-09T11:40:56;102898.13;;;11.38;34.79
50380;BME280;37474;59.468;18.040;2023-04-09T11:43:29;102896.66;;;10.80;34.81
50380;BME280;37474;59.468;18.040;2023-04-09T11:45:57;102892.56;;;10.65;34.36
50380;BME280;37474;59.468;18.040;2023-04-09T11:48:29;102897.84;;;10.62;35.26
50380;BME280;37474;59.468;18.040;2023-04-09T11:50:59;102884.47;;;10.32;34.82
50380;BME280;37474;59.468;18.040;2023-04-09T11:53:29;102895.09;;;10.14;33.85
50380;BME280;37474;59.468;18.040;2023-04-09T11:55:57;102894.94;;;10.26;34.90
50380;BME280;37474;59.468;18.040;2023-04-09T11:58:26;102892.09;;;10.42;34.40
50380;BME280;37474;59.468;18.040;2023-04-09T12:00:54;102890.25;;;10.48;35.12
50380;BME280;37474;59.468;18.040;2023-04-09T12:03:27;102888.66;;;10.41;34.70
50380;BME280;37474;59.468;18.040;2023-04-09T12:06:00;102851.00;;;10.16;34.04
50380;BME280;37474;59.468;18.040;2023-04-09T12:08:29;102881.91;;;11.69;35.17
50380;BME280;37474;59.468;18.040;2023-04-09T12:11:06;102883.34;;;11.83;34.13
50380;BME280;37474;59.468;18.040;2023-04-09T12:13:35;102889.03;;;12.36;31.75
50380;BME280;37474;59.468;18.040;2023-04-09T12:16:10;102887.38;;;12.34;31.24
50380;BME280;37474;59.468;18.040;2023-04-09T12:18:41;102891.47;;;12.07;31.29
50380;BME280;37474;59.468;18.040;2023-04-09T12:21:10;102892.63;;;11.12;32.61
50380;BME280;37474;59.468;18.040;2023-04-09T12:23:38;102892.16;;;10.90;35.36
50380;BME280;37474;59.468;18.040;2023-04-09T12:26:08;102886.84;;;10.96;34.23
50380;BME280;37474;59.468;18.040;2023-04-09T12:28:36;102891.41;;;10.83;37.55
50380;BME280;37474;59.468;18.040;2023-04-09T12:31:08;102885.25;;;11.33;36.51
50380;BME280;37474;59.468;18.040;2023-04-09T12:33:36;102891.69;;;11.57;34.46
50380;BME280;37474;59.468;18.040;2023-04-09T12:36:08;102887.06;;;11.30;34.19
50380;BME280;37474;59.468;18.040;2023-04-09T12:38:37;102895.41;;;11.01;34.93
50380;BME280;37474;59.468;18.040;2023-04-09T12:41:07;102836.44;;;10.63;36.52
50380;BME280;37474;59.468;18.040;2023-04-09T12:43:35;102895.09;;;10.14;36.58
50380;BME280;37474;59.468;18.040;2023-04-09T12:46:03;102883.69;;;10.29;38.94
50380;BME280;37474;59.468;18.040;2023-04-09T12:48:31;102885.34;;;10.31;39.05
50380;BME280;37474;59.468;18.040;2023-04-09T12:51:01;102882.09;;;10.17;38.64
50380;BME280;37474;59.468;18.040;2023-04-09T12:53:31;102881.38;;;10.08;37.83
50380;BME280;37474;59.468;18.040;2023-04-09T12:56:03;102885.50;;;9.59;37.69
50380;BME280;37474;59.468;18.040;2023-04-09T12:58:30;102886.94;;;9.82;38.96